createdAt,value
2023-02-04T00:01:29.841Z,5.27
2023-02-04T00:04:31.323Z,5.30
2023-02-04T00:07:32.815Z,5.26
2023-02-04T00:10:34.473Z,5.24
2023-02-04T00:13:36.119Z,5.26
2023-02-04T00:16:37.563Z,5.27
2023-02-04T00:19:40.800Z,5.28
2023-02-04T00:22:42.322Z,5.30
2023-02-04T00:25:43.794Z,5.28
2023-02-04T00:28:45.327Z,5.22
2023-02-04T00:31:46.855Z,5.19
2023-02-04T00:34:48.388Z,5.17
2023-02-04T00:37:50.658Z,5.20
2023-02-04T00:40:52.511Z,5.18
2023-02-04T00:43:53.967Z,5.20
2023-02-04T00:46:55.563Z,5.21
2023-02-04T00:49:57.431Z,5.20
2023-02-04T00:53:01.841Z,5.20
2023-02-04T00:56:04.763Z,5.18
2023-02-04T00:59:06.260Z,5.29
2023-02-04T01:02:07.802Z,5.27
2023-02-04T01:05:10.404Z,5.25
2023-02-04T01:08:12.309Z,5.31
2023-02-04T01:11:13.803Z,5.39
2023-02-04T01:14:15.373Z,5.36
2023-02-04T01:17:18.365Z,5.30
2023-02-04T01:20:21.404Z,5.25
2023-02-04T01:23:23.646Z,5.31
2023-02-04T01:26:25.298Z,5.39
2023-02-04T01:29:28.611Z,5.46
2023-02-04T01:32:30.053Z,5.44
2023-02-04T01:35:31.557Z,5.45
2023-02-04T01:38:33.025Z,5.43
2023-02-04T01:41:34.601Z,5.40
2023-02-04T01:44:36.293Z,5.41
2023-02-04T01:47:38.509Z,5.43
2023-02-04T01:50:40.852Z,5.40
2023-02-04T01:53:42.889Z,5.47
2023-02-04T01:56:47.757Z,5.43
2023-02-04T01:59:52.921Z,5.38
2023-02-04T02:02:56.373Z,5.40
2023-02-04T02:05:58.342Z,5.39
2023-02-04T02:09:01.674Z,5.36
2023-02-04T02:12:04.346Z,5.35
2023-02-04T02:15:07.723Z,5.31
2023-02-04T02:18:10.552Z,5.35
2023-02-04T02:21:16.167Z,5.31
2023-02-04T02:24:23.766Z,5.40
2023-02-04T02:27:27.471Z,5.30
2023-02-04T02:30:29.580Z,5.29
2023-02-04T02:33:31.567Z,5.30
2023-02-04T02:36:33.134Z,5.30
2023-02-04T02:39:36.521Z,5.27
2023-02-04T02:42:38.497Z,5.33
2023-02-04T02:45:40.055Z,5.31
2023-02-04T02:48:41.722Z,5.32
2023-02-04T02:51:44.200Z,5.41
2023-02-04T02:54:46.446Z,5.50
2023-02-04T02:57:51.140Z,5.50
2023-02-04T03:00:53.383Z,5.49
2023-02-04T03:03:55.788Z,5.51
2023-02-04T03:06:57.644Z,5.58
2023-02-04T03:09:59.244Z,5.61
2023-02-04T03:13:00.839Z,5.63
2023-02-04T03:16:03.519Z,5.66
2023-02-04T03:19:06.967Z,5.77
2023-02-04T03:22:08.886Z,5.82
2023-02-04T03:25:10.421Z,5.83
2023-02-04T03:28:12.048Z,5.85
2023-02-04T03:31:13.673Z,5.83
2023-02-04T03:34:15.159Z,5.84
2023-02-04T03:37:16.630Z,5.84
2023-02-04T03:40:18.264Z,5.79
2023-02-04T03:43:19.770Z,5.77
2023-02-04T03:46:23.642Z,5.78
2023-02-04T03:49:26.225Z,5.76
2023-02-04T03:52:27.748Z,5.79
2023-02-04T03:55:29.300Z,5.79
2023-02-04T03:58:30.790Z,5.77
2023-02-04T04:01:32.584Z,5.77
2023-02-04T04:04:34.132Z,5.70
2023-02-04T04:07:35.612Z,5.66
2023-02-04T04:10:37.116Z,5.67
2023-02-04T04:13:38.679Z,5.68
2023-02-04T04:16:40.152Z,5.70
2023-02-04T04:19:41.639Z,5.69
2023-02-04T04:22:43.170Z,5.67
2023-02-04T04:25:44.674Z,5.68
2023-02-04T04:28:46.239Z,5.62
2023-02-04T04:31:47.937Z,5.64
2023-02-04T04:34:49.518Z,5.56
2023-02-04T04:37:51.030Z,5.59
2023-02-04T04:40:52.487Z,5.71
2023-02-04T04:43:53.906Z,5.72
2023-02-04T04:46:55.498Z,5.66
2023-02-04T04:49:57.028Z,5.65
2023-02-04T04:52:58.544Z,5.69
2023-02-04T04:55:59.984Z,5.78
2023-02-04T04:59:01.451Z,5.86
2023-02-04T05:02:02.911Z,5.88
2023-02-04T05:05:04.630Z,5.87
2023-02-04T05:08:13.002Z,5.92
2023-02-04T05:11:14.457Z,5.95
2023-02-04T05:14:15.880Z,6.00
2023-02-04T05:17:17.361Z,6.02
2023-02-04T05:20:18.999Z,6.02
2023-02-04T05:23:20.522Z,6.00
2023-02-04T05:26:29.780Z,6.00
2023-02-04T05:29:31.865Z,5.97
2023-02-04T05:32:33.364Z,5.98
2023-02-04T05:35:34.819Z,5.97
2023-02-04T05:38:36.236Z,5.99
2023-02-04T05:41:37.771Z,6.01
2023-02-04T05:44:39.258Z,6.01
2023-02-04T05:47:40.783Z,6.00
2023-02-04T05:50:42.271Z,6.01
2023-02-04T05:53:43.806Z,5.94
2023-02-04T05:56:46.889Z,5.88
2023-02-04T05:59:48.427Z,5.89
2023-02-04T06:02:49.920Z,5.90
2023-02-04T06:05:51.415Z,5.92
2023-02-04T06:08:52.869Z,5.98
2023-02-04T06:11:54.366Z,6.02
2023-02-04T06:14:56.128Z,6.01
2023-02-04T06:17:58.494Z,6.02
2023-02-04T06:21:00.008Z,6.04
2023-02-04T06:24:01.526Z,6.07
2023-02-04T06:27:03.046Z,6.02
2023-02-04T06:30:05.032Z,6.07
2023-02-04T06:33:06.526Z,6.06
2023-02-04T06:36:08.141Z,6.07
2023-02-04T06:39:09.690Z,6.06
2023-02-04T06:42:11.164Z,6.09
2023-02-04T06:45:12.690Z,6.01
2023-02-04T06:48:14.147Z,6.00
2023-02-04T06:51:15.574Z,5.99
2023-02-04T06:54:17.961Z,6.01
2023-02-04T06:57:19.405Z,6.07
2023-02-04T07:00:21.090Z,6.04
2023-02-04T07:03:22.510Z,6.04
2023-02-04T07:06:23.935Z,6.04
2023-02-04T07:09:25.905Z,6.03
2023-02-04T07:12:27.381Z,6.06
2023-02-04T07:15:28.993Z,6.05
2023-02-04T07:18:30.516Z,6.09
2023-02-04T07:21:31.999Z,6.11
2023-02-04T07:24:33.479Z,6.12
2023-02-04T07:27:34.905Z,6.14
2023-02-04T07:30:36.608Z,6.19
2023-02-04T07:33:38.795Z,6.18
2023-02-04T07:36:40.996Z,6.16
2023-02-04T07:39:42.486Z,6.15
2023-02-04T07:42:44.240Z,6.16
2023-02-04T07:45:51.408Z,6.18
2023-02-04T07:48:52.995Z,6.25
2023-02-04T07:51:54.627Z,6.33
2023-02-04T07:54:56.056Z,6.32
2023-02-04T07:57:57.895Z,6.29
2023-02-04T08:00:59.663Z,6.34
2023-02-04T08:04:01.177Z,6.35
2023-02-04T08:07:02.691Z,6.29
2023-02-04T08:10:05.322Z,6.38
2023-02-04T08:13:06.943Z,6.46
2023-02-04T08:16:09.364Z,6.49
2023-02-04T08:19:12.647Z,6.48
2023-02-04T08:22:14.230Z,6.51
2023-02-04T08:25:16.246Z,6.63
2023-02-04T08:28:18.123Z,6.71
2023-02-04T08:31:19.700Z,6.69
2023-02-04T08:34:21.306Z,6.76
2023-02-04T08:37:22.807Z,6.74
2023-02-04T08:40:24.258Z,6.81
2023-02-04T08:43:26.798Z,6.85
2023-02-04T08:46:28.396Z,6.92
2023-02-04T08:49:29.981Z,6.97
2023-02-04T08:52:31.514Z,6.97
2023-02-04T08:55:33.027Z,6.94
2023-02-04T08:58:35.099Z,6.88
2023-02-04T09:01:36.595Z,6.87
2023-02-04T09:04:38.164Z,6.80
2023-02-04T09:07:39.602Z,6.74
2023-02-04T09:10:41.286Z,6.77
2023-02-04T09:13:42.770Z,6.86
2023-02-04T09:16:44.350Z,6.93
2023-02-04T09:19:46.011Z,6.94
2023-02-04T09:22:50.264Z,6.97
2023-02-04T09:25:51.749Z,7.02
2023-02-04T09:28:53.416Z,7.05
2023-02-04T09:31:54.991Z,7.04
2023-02-04T09:34:56.544Z,7.20
2023-02-04T09:37:58.025Z,7.24
2023-02-04T09:41:06.437Z,7.23
2023-02-04T09:44:16.481Z,7.17
2023-02-04T09:47:23.778Z,7.23
2023-02-04T09:50:28.182Z,7.22
2023-02-04T09:53:30.185Z,7.37
2023-02-04T09:56:32.146Z,7.43
2023-02-04T09:59:33.621Z,7.40
2023-02-04T10:02:35.196Z,7.28
2023-02-04T10:05:37.277Z,7.30
2023-02-04T10:08:40.070Z,7.38
2023-02-04T10:11:42.859Z,7.35
2023-02-04T10:14:44.668Z,7.23
2023-02-04T10:17:52.414Z,7.32
2023-02-04T10:21:14.832Z,7.25
2023-02-04T10:24:19.911Z,7.21
2023-02-04T10:27:21.513Z,7.24
2023-02-04T10:30:31.283Z,7.31
2023-02-04T10:33:35.326Z,7.33
2023-02-04T10:36:37.120Z,7.46
2023-02-04T10:39:43.252Z,7.63
2023-02-04T10:42:50.115Z,7.67
2023-02-04T10:46:04.563Z,7.89
2023-02-04T10:49:17.224Z,8.13
2023-02-04T10:52:21.480Z,8.24
2023-02-04T10:55:24.198Z,8.35
2023-02-04T10:58:31.328Z,8.57
2023-02-04T11:01:32.957Z,8.85
2023-02-04T11:04:34.521Z,8.94
2023-02-04T11:07:36.029Z,9.00
2023-02-04T11:10:37.530Z,8.95
2023-02-04T11:13:50.010Z,9.12
2023-02-04T11:16:51.614Z,9.49
2023-02-04T11:19:53.061Z,9.64
2023-02-04T11:22:54.727Z,9.80
2023-02-04T11:26:19.084Z,9.79
2023-02-04T11:29:26.478Z,9.80
2023-02-04T11:32:37.933Z,9.74
2023-02-04T11:35:39.548Z,9.65
2023-02-04T11:38:46.962Z,9.59
2023-02-04T11:41:48.453Z,9.55
2023-02-04T11:44:59.789Z,9.59
2023-02-04T11:48:04.393Z,9.77
2023-02-04T11:51:15.252Z,9.83
2023-02-04T11:54:19.256Z,9.77
2023-02-04T11:57:20.713Z,9.71
2023-02-04T12:00:25.517Z,9.55
2023-02-04T12:03:34.145Z,9.15
2023-02-04T12:06:37.047Z,9.06
2023-02-04T12:09:47.525Z,9.21
2023-02-04T12:12:52.104Z,9.31
2023-02-04T12:16:02.560Z,9.42
2023-02-04T12:19:04.073Z,9.52
2023-02-04T12:22:05.554Z,9.60
2023-02-04T12:25:07.641Z,9.61
2023-02-04T12:28:09.192Z,9.69
2023-02-04T12:31:10.881Z,9.85
2023-02-04T12:34:12.562Z,9.87
2023-02-04T12:37:14.069Z,9.74
2023-02-04T12:40:17.275Z,9.75
2023-02-04T12:43:18.817Z,9.78
2023-02-04T12:46:20.328Z,9.86
2023-02-04T12:49:24.207Z,10.05
2023-02-04T12:52:25.705Z,9.73
2023-02-04T12:55:29.254Z,9.58
2023-02-04T12:58:30.835Z,9.63
2023-02-04T13:01:33.623Z,9.70
2023-02-04T13:04:36.336Z,9.54
2023-02-04T13:07:40.701Z,9.44
2023-02-04T13:10:42.825Z,9.36
2023-02-04T13:13:44.316Z,9.27
2023-02-04T13:16:45.798Z,9.22
2023-02-04T13:19:47.372Z,9.19
2023-02-04T13:22:48.912Z,9.02
2023-02-04T13:25:50.410Z,9.05
2023-02-04T13:28:51.920Z,8.95
2023-02-04T13:31:53.448Z,9.05
2023-02-04T13:34:54.951Z,9.14
2023-02-04T13:37:56.675Z,9.28
2023-02-04T13:40:58.164Z,8.99
2023-02-04T13:43:59.714Z,8.93
2023-02-04T13:47:01.266Z,9.00
2023-02-04T13:50:02.832Z,8.89
2023-02-04T13:53:04.308Z,8.87
2023-02-04T13:56:05.980Z,8.89
2023-02-04T13:59:07.544Z,8.96
2023-02-04T14:02:09.675Z,8.94
2023-02-04T14:05:11.221Z,8.76
2023-02-04T14:08:12.667Z,8.76
2023-02-04T14:11:14.227Z,8.69
2023-02-04T14:14:15.974Z,8.60
2023-02-04T14:17:17.559Z,8.69
2023-02-04T14:20:19.106Z,8.64
2023-02-04T14:23:20.591Z,8.46
2023-02-04T14:26:22.056Z,8.47
2023-02-04T14:29:23.609Z,8.50
2023-02-04T14:32:25.108Z,8.51
2023-02-04T14:35:27.038Z,8.53
2023-02-04T14:38:30.892Z,8.64
2023-02-04T14:41:32.485Z,8.73
2023-02-04T14:44:33.920Z,8.90
2023-02-04T14:47:36.410Z,9.05
2023-02-04T14:50:37.914Z,8.98
2023-02-04T14:53:42.354Z,8.72
2023-02-04T14:56:47.735Z,8.46
2023-02-04T14:59:49.176Z,8.32
2023-02-04T15:02:50.680Z,8.28
2023-02-04T15:05:52.206Z,8.28
2023-02-04T15:08:53.846Z,8.32
2023-02-04T15:11:55.927Z,8.32
2023-02-04T15:14:57.431Z,8.19
2023-02-04T15:17:58.939Z,7.99
2023-02-04T15:21:00.589Z,7.74
2023-02-04T15:24:02.191Z,7.52
2023-02-04T15:27:03.765Z,7.38
2023-02-04T15:30:05.467Z,7.43
2023-02-04T15:33:06.907Z,7.51
2023-02-04T15:36:08.586Z,7.62
2023-02-04T15:39:10.083Z,7.69
2023-02-04T15:42:11.613Z,7.61
2023-02-04T15:45:13.161Z,7.44
2023-02-04T15:48:15.539Z,7.20
2023-02-04T15:51:17.358Z,7.06
2023-02-04T15:54:18.891Z,6.95
2023-02-04T15:57:20.386Z,6.79
2023-02-04T16:00:22.818Z,6.62
2023-02-04T16:03:25.516Z,6.42
2023-02-04T16:06:27.175Z,6.29
2023-02-04T16:09:28.633Z,6.14
2023-02-04T16:12:30.161Z,5.94
2023-02-04T16:15:32.246Z,5.81
2023-02-04T16:18:34.055Z,5.68
2023-02-04T16:21:35.559Z,5.61
2023-02-04T16:24:38.506Z,5.48
2023-02-04T16:27:40.171Z,5.37
2023-02-04T16:30:41.615Z,5.33
2023-02-04T16:33:43.077Z,5.20
2023-02-04T16:36:44.545Z,5.04
2023-02-04T16:39:46.027Z,4.88
2023-02-04T16:42:47.601Z,4.79
2023-02-04T16:45:49.166Z,4.70
2023-02-04T16:48:50.672Z,4.61
2023-02-04T16:51:52.136Z,4.52
2023-02-04T16:54:53.728Z,4.50
2023-02-04T16:57:55.601Z,4.42
2023-02-04T17:00:57.593Z,4.35
2023-02-04T17:03:59.217Z,4.27
2023-02-04T17:07:00.772Z,4.26
2023-02-04T17:10:02.328Z,4.14
2023-02-04T17:13:03.826Z,4.04
2023-02-04T17:16:05.695Z,4.03
2023-02-04T17:19:07.382Z,3.93
2023-02-04T17:22:08.842Z,3.81
2023-02-04T17:25:10.338Z,3.71
2023-02-04T17:28:11.877Z,3.63
2023-02-04T17:31:13.973Z,3.59
2023-02-04T17:34:15.506Z,3.61
2023-02-04T17:37:17.013Z,3.54
2023-02-04T17:40:18.550Z,3.52
2023-02-04T17:43:19.988Z,3.52
2023-02-04T17:46:21.659Z,3.54
2023-02-04T17:49:23.149Z,3.52
2023-02-04T17:52:26.623Z,3.50
2023-02-04T17:55:30.657Z,3.49
2023-02-04T17:58:32.976Z,3.51
2023-02-04T18:01:34.598Z,3.41
2023-02-04T18:04:36.532Z,3.48
2023-02-04T18:07:38.058Z,3.55
2023-02-04T18:10:43.371Z,3.62
2023-02-04T18:13:45.044Z,3.63
2023-02-04T18:16:46.691Z,3.70
2023-02-04T18:19:48.189Z,3.76
2023-02-04T18:22:55.449Z,3.85
2023-02-04T18:26:10.626Z,3.93
2023-02-04T18:29:43.000Z,4.02
2023-02-04T18:32:44.483Z,4.00
2023-02-04T18:35:50.290Z,4.02
2023-02-04T18:38:51.785Z,4.03
2023-02-04T18:41:53.302Z,4.08
2023-02-04T18:44:56.696Z,4.04
2023-02-04T18:48:00.858Z,3.98
2023-02-04T18:51:02.451Z,3.94
2023-02-04T18:54:48.668Z,3.91
2023-02-04T18:57:50.177Z,3.85
2023-02-04T19:01:27.567Z,3.77
2023-02-04T19:04:33.222Z,3.59
2023-02-04T19:07:35.733Z,3.41
2023-02-04T19:10:39.665Z,3.22
2023-02-04T19:13:42.259Z,3.10
2023-02-04T19:16:44.500Z,3.06
2023-02-04T19:20:00.896Z,3.15
2023-02-04T19:23:02.383Z,3.16
2023-02-04T19:26:23.979Z,3.18
2023-02-04T19:29:27.457Z,3.16
2023-02-04T19:32:38.159Z,3.12
2023-02-04T19:35:45.098Z,3.16
2023-02-04T19:38:48.001Z,3.17
2023-02-04T19:41:52.075Z,3.20
2023-02-04T19:44:53.664Z,3.08
2023-02-04T19:47:56.616Z,3.05
2023-02-04T19:50:58.711Z,2.95
2023-02-04T19:54:11.648Z,2.82
2023-02-04T19:57:25.962Z,2.65
2023-02-04T20:00:33.558Z,2.47
2023-02-04T20:03:45.989Z,2.36
2023-02-04T20:06:47.899Z,2.27
2023-02-04T20:09:54.748Z,2.11
2023-02-04T20:13:00.613Z,2.13
2023-02-04T20:16:04.059Z,2.05
2023-02-04T20:19:42.451Z,1.88
2023-02-04T20:22:52.568Z,1.97
2023-02-04T20:25:55.015Z,1.84
2023-02-04T20:28:56.554Z,1.87
2023-02-04T20:31:58.060Z,1.86
2023-02-04T20:35:14.493Z,1.86
2023-02-04T20:38:18.277Z,1.79
2023-02-04T20:41:21.170Z,1.79
2023-02-04T20:44:36.499Z,1.80
2023-02-04T20:47:38.102Z,1.75
2023-02-04T20:50:48.091Z,1.72
2023-02-04T20:53:55.340Z,1.66
2023-02-04T20:57:09.684Z,1.67
2023-02-04T21:00:15.834Z,1.68
2023-02-04T21:03:37.497Z,1.69
2023-02-04T21:06:38.959Z,1.64
2023-02-04T21:09:40.468Z,1.66
2023-02-04T21:12:45.681Z,1.76
2023-02-04T21:15:47.614Z,1.78
2023-02-04T21:18:50.616Z,1.82
2023-02-04T21:21:52.885Z,1.80
2023-02-04T21:24:54.471Z,1.86
2023-02-04T21:27:56.777Z,1.91
2023-02-04T21:30:59.316Z,1.91
2023-02-04T21:34:01.005Z,1.90
2023-02-04T21:37:02.490Z,1.90
2023-02-04T21:40:04.405Z,1.92
2023-02-04T21:43:07.967Z,1.99
2023-02-04T21:46:09.466Z,2.06
2023-02-04T21:49:11.019Z,2.00
2023-02-04T21:52:13.247Z,1.97
2023-02-04T21:55:17.286Z,2.00
2023-02-04T21:58:18.793Z,2.02
2023-02-04T22:01:20.279Z,1.98
2023-02-04T22:04:21.776Z,1.99
2023-02-04T22:07:23.504Z,2.00
2023-02-04T22:10:25.994Z,2.02
2023-02-04T22:13:27.567Z,2.05
2023-02-04T22:16:29.065Z,1.99
2023-02-04T22:19:30.610Z,1.84
2023-02-04T22:22:32.184Z,1.87
2023-02-04T22:25:33.965Z,1.88
2023-02-04T22:28:35.632Z,1.80
2023-02-04T22:31:37.224Z,1.70
2023-02-04T22:34:38.859Z,1.67
2023-02-04T22:37:41.899Z,1.66
2023-02-04T22:40:43.345Z,1.65
2023-02-04T22:43:44.797Z,1.60
2023-02-04T22:46:47.565Z,1.52
2023-02-04T22:49:49.244Z,1.50
2023-02-04T22:52:50.762Z,1.39
2023-02-04T22:55:52.274Z,1.31
2023-02-04T22:58:54.055Z,1.31
2023-02-04T23:01:56.289Z,1.20
2023-02-04T23:04:57.867Z,1.15
2023-02-04T23:07:59.328Z,1.07
2023-02-04T23:11:00.770Z,0.99
2023-02-04T23:14:02.296Z,0.98
2023-02-04T23:17:03.799Z,0.87
2023-02-04T23:20:05.738Z,0.85
2023-02-04T23:23:08.391Z,0.80
2023-02-04T23:26:09.968Z,0.81
2023-02-04T23:29:11.401Z,0.78
2023-02-04T23:32:12.823Z,0.78
2023-02-04T23:35:14.336Z,0.86
2023-02-04T23:38:16.059Z,0.82
2023-02-04T23:41:17.527Z,0.73
2023-02-04T23:44:19.034Z,0.74
2023-02-04T23:47:20.605Z,0.77
2023-02-04T23:50:22.125Z,0.79
2023-02-04T23:53:24.271Z,0.74
2023-02-04T23:56:25.790Z,0.56
2023-02-04T23:59:27.480Z,0.60
